sensor_id;sensor_type;location;lat;lon;timestamp;P1;durP1;ratioP1;P2;durP2;ratioP2
8574;SDS011;4325;42.520;27.448;2023-07-13T00:01:51;8.23;;;6.03;;
8574;SDS011;4325;42.520;27.448;2023-07-13T00:04:18;7.67;;;5.70;;
8574;SDS011;4325;42.520;27.448;2023-07-13T00:06:46;7.00;;;6.00;;
8574;SDS011;4325;42.520;27.448;2023-07-13T00:09:15;7.87;;;5.70;;
8574;SDS011;4325;42.520;27.448;2023-07-13T00:11:43;7.57;;;5.43;;
8574;SDS011;4325;42.520;27.448;2023-07-13T00:14:12;8.77;;;6.07;;
8574;SDS011;4325;42.520;27.448;2023-07-13T00:16:41;7.17;;;5.47;;
8574;SDS011;4325;42.520;27.448;2023-07-13T00:19:11;6.97;;;5.83;;
8574;SDS011;4325;42.520;27.448;2023-07-13T00:21:39;6.80;;;5.77;;
8574;SDS011;4325;42.520;27.448;2023-07-13T00:24:06;9.17;;;5.60;;
8574;SDS011;4325;42.520;27.448;2023-07-13T00:26:35;6.33;;;5.53;;
8574;SDS011;4325;42.520;27.448;2023-07-13T00:29:02;8.60;;;5.63;;
8574;SDS011;4325;42.520;27.448;2023-07-13T00:31:30;9.73;;;5.77;;
8574;SDS011;4325;42.520;27.448;2023-07-13T00:33:57;6.27;;;5.60;;
8574;SDS011;4325;42.520;27.448;2023-07-13T00:36:25;5.50;;;4.67;;
8574;SDS011;4325;42.520;27.448;2023-07-13T00:38:52;8.50;;;5.17;;
8574;SDS011;4325;42.520;27.448;2023-07-13T00:41:19;6.27;;;5.23;;
8574;SDS011;4325;42.520;27.448;2023-07-13T00:43:47;7.03;;;4.90;;
8574;SDS011;4325;42.520;27.448;2023-07-13T00:46:16;7.57;;;5.70;;
8574;SDS011;4325;42.520;27.448;2023-07-13T00:48:47;9.27;;;4.90;;
8574;SDS011;4325;42.520;27.448;2023-07-13T00:51:16;8.73;;;5.70;;
8574;SDS011;4325;42.520;27.448;2023-07-13T00:53:47;8.17;;;5.13;;
8574;SDS011;4325;42.520;27.448;2023-07-13T00:56:14;8.30;;;5.03;;
8574;SDS011;4325;42.520;27.448;2023-07-13T00:58:41;12.20;;;4.47;;
8574;SDS011;4325;42.520;27.448;2023-07-13T01:01:10;6.27;;;5.07;;
8574;SDS011;4325;42.520;27.448;2023-07-13T01:03:38;7.70;;;5.30;;
8574;SDS011;4325;42.520;27.448;2023-07-13T01:06:05;6.37;;;5.10;;
8574;SDS011;4325;42.520;27.448;2023-07-13T01:08:32;5.87;;;4.97;;
8574;SDS011;4325;42.520;27.448;2023-07-13T01:11:00;6.43;;;4.37;;
8574;SDS011;4325;42.520;27.448;2023-07-13T01:13:26;7.33;;;5.03;;
8574;SDS011;4325;42.520;27.448;2023-07-13T01:15:55;6.13;;;4.90;;
8574;SDS011;4325;42.520;27.448;2023-07-13T01:18:27;6.23;;;5.10;;
8574;SDS011;4325;42.520;27.448;2023-07-13T01:20:57;10.27;;;5.70;;
8574;SDS011;4325;42.520;27.448;2023-07-13T01:23:26;9.57;;;5.43;;
8574;SDS011;4325;42.520;27.448;2023-07-13T01:25:53;7.87;;;5.50;;
8574;SDS011;4325;42.520;27.448;2023-07-13T01:28:21;7.43;;;5.83;;
8574;SDS011;4325;42.520;27.448;2023-07-13T01:30:52;6.73;;;4.70;;
8574;SDS011;4325;42.520;27.448;2023-07-13T01:33:20;7.47;;;5.93;;
8574;SDS011;4325;42.520;27.448;2023-07-13T01:35:47;7.73;;;5.60;;
8574;SDS011;4325;42.520;27.448;2023-07-13T01:38:17;7.13;;;6.03;;
8574;SDS011;4325;42.520;27.448;2023-07-13T01:40:45;6.93;;;5.53;;
8574;SDS011;4325;42.520;27.448;2023-07-13T01:43:12;7.30;;;5.37;;
8574;SDS011;4325;42.520;27.448;2023-07-13T01:45:39;8.27;;;5.47;;
8574;SDS011;4325;42.520;27.448;2023-07-13T01:48:06;11.60;;;5.57;;
8574;SDS011;4325;42.520;27.448;2023-07-13T01:50:33;7.70;;;4.80;;
8574;SDS011;4325;42.520;27.448;2023-07-13T01:53:00;9.03;;;5.87;;
8574;SDS011;4325;42.520;27.448;2023-07-13T01:55:29;5.40;;;4.43;;
8574;SDS011;4325;42.520;27.448;2023-07-13T01:57:55;6.77;;;5.03;;
8574;SDS011;4325;42.520;27.448;2023-07-13T02:00:23;7.70;;;5.13;;
8574;SDS011;4325;42.520;27.448;2023-07-13T02:02:50;9.57;;;4.77;;
8574;SDS011;4325;42.520;27.448;2023-07-13T02:05:18;7.60;;;4.90;;
8574;SDS011;4325;42.520;27.448;2023-07-13T02:07:45;8.27;;;5.63;;
8574;SDS011;4325;42.520;27.448;2023-07-13T02:10:11;6.10;;;5.17;;
8574;SDS011;4325;42.520;27.448;2023-07-13T02:12:40;8.73;;;5.63;;
8574;SDS011;4325;42.520;27.448;2023-07-13T02:15:08;10.17;;;6.17;;
8574;SDS011;4325;42.520;27.448;2023-07-13T02:17:35;12.50;;;7.40;;
8574;SDS011;4325;42.520;27.448;2023-07-13T02:20:03;9.73;;;6.93;;
8574;SDS011;4325;42.520;27.448;2023-07-13T02:22:31;11.00;;;6.53;;
8574;SDS011;4325;42.520;27.448;2023-07-13T02:24:58;10.80;;;7.33;;
8574;SDS011;4325;42.520;27.448;2023-07-13T02:27:25;10.87;;;6.83;;
8574;SDS011;4325;42.520;27.448;2023-07-13T02:29:53;12.63;;;5.97;;
8574;SDS011;4325;42.520;27.448;2023-07-13T02:32:20;7.27;;;5.80;;
8574;SDS011;4325;42.520;27.448;2023-07-13T02:34:47;10.10;;;6.27;;
8574;SDS011;4325;42.520;27.448;2023-07-13T02:37:14;9.07;;;6.20;;
8574;SDS011;4325;42.520;27.448;2023-07-13T02:39:41;8.23;;;5.70;;
8574;SDS011;4325;42.520;27.448;2023-07-13T02:42:08;10.40;;;6.00;;
8574;SDS011;4325;42.520;27.448;2023-07-13T02:44:35;8.77;;;5.13;;
8574;SDS011;4325;42.520;27.448;2023-07-13T02:47:03;7.53;;;5.27;;
8574;SDS011;4325;42.520;27.448;2023-07-13T02:49:30;6.13;;;5.13;;
8574;SDS011;4325;42.520;27.448;2023-07-13T02:51:57;6.47;;;4.80;;
8574;SDS011;4325;42.520;27.448;2023-07-13T02:54:24;6.30;;;5.00;;
8574;SDS011;4325;42.520;27.448;2023-07-13T02:56:51;5.57;;;4.63;;
8574;SDS011;4325;42.520;27.448;2023-07-13T02:59:18;7.03;;;5.10;;
8574;SDS011;4325;42.520;27.448;2023-07-13T03:01:45;5.07;;;4.53;;
8574;SDS011;4325;42.520;27.448;2023-07-13T03:04:13;7.33;;;5.30;;
8574;SDS011;4325;42.520;27.448;2023-07-13T03:06:44;7.60;;;4.50;;
8574;SDS011;4325;42.520;27.448;2023-07-13T03:09:11;6.27;;;4.40;;
8574;SDS011;4325;42.520;27.448;2023-07-13T03:11:38;10.93;;;4.63;;
8574;SDS011;4325;42.520;27.448;2023-07-13T03:14:06;6.57;;;5.23;;
8574;SDS011;4325;42.520;27.448;2023-07-13T03:16:34;7.13;;;4.97;;
8574;SDS011;4325;42.520;27.448;2023-07-13T03:19:01;7.20;;;5.10;;
8574;SDS011;4325;42.520;27.448;2023-07-13T03:21:29;8.53;;;5.43;;
8574;SDS011;4325;42.520;27.448;2023-07-13T03:23:56;7.33;;;5.60;;
8574;SDS011;4325;42.520;27.448;2023-07-13T03:26:23;6.93;;;5.33;;
8574;SDS011;4325;42.520;27.448;2023-07-13T03:28:50;6.80;;;5.30;;
8574;SDS011;4325;42.520;27.448;2023-07-13T03:31:20;7.17;;;5.70;;
8574;SDS011;4325;42.520;27.448;2023-07-13T03:33:48;14.03;;;8.13;;
8574;SDS011;4325;42.520;27.448;2023-07-13T03:36:16;16.73;;;8.13;;
8574;SDS011;4325;42.520;27.448;2023-07-13T03:38:47;11.53;;;6.80;;
8574;SDS011;4325;42.520;27.448;2023-07-13T03:41:14;11.63;;;7.23;;
8574;SDS011;4325;42.520;27.448;2023-07-13T03:43:41;13.20;;;8.13;;
8574;SDS011;4325;42.520;27.448;2023-07-13T03:46:09;16.87;;;9.80;;
8574;SDS011;4325;42.520;27.448;2023-07-13T03:48:36;20.30;;;8.80;;
8574;SDS011;4325;42.520;27.448;2023-07-13T03:51:05;11.00;;;8.00;;
8574;SDS011;4325;42.520;27.448;2023-07-13T03:53:32;14.37;;;8.23;;
8574;SDS011;4325;42.520;27.448;2023-07-13T03:56:00;14.13;;;8.00;;
8574;SDS011;4325;42.520;27.448;2023-07-13T03:58:29;8.03;;;6.23;;
8574;SDS011;4325;42.520;27.448;2023-07-13T04:00:57;8.90;;;6.23;;
8574;SDS011;4325;42.520;27.448;2023-07-13T04:03:25;13.00;;;7.00;;
8574;SDS011;4325;42.520;27.448;2023-07-13T04:05:53;12.27;;;7.27;;
8574;SDS011;4325;42.520;27.448;2023-07-13T04:08:25;10.30;;;6.70;;
8574;SDS011;4325;42.520;27.448;2023-07-13T04:10:53;9.37;;;6.13;;
8574;SDS011;4325;42.520;27.448;2023-07-13T04:13:21;12.10;;;6.40;;
8574;SDS011;4325;42.520;27.448;2023-07-13T04:15:48;8.90;;;6.30;;
8574;SDS011;4325;42.520;27.448;2023-07-13T04:18:15;9.60;;;6.03;;
8574;SDS011;4325;42.520;27.448;2023-07-13T04:20:42;8.27;;;6.07;;
8574;SDS011;4325;42.520;27.448;2023-07-13T04:23:09;11.70;;;6.57;;
8574;SDS011;4325;42.520;27.448;2023-07-13T04:25:36;10.23;;;6.67;;
8574;SDS011;4325;42.520;27.448;2023-07-13T04:28:03;8.77;;;6.37;;
8574;SDS011;4325;42.520;27.448;2023-07-13T04:30:32;9.93;;;5.57;;
8574;SDS011;4325;42.520;27.448;2023-07-13T04:33:00;7.53;;;5.67;;
8574;SDS011;4325;42.520;27.448;2023-07-13T04:35:27;9.37;;;6.30;;
8574;SDS011;4325;42.520;27.448;2023-07-13T04:37:54;12.80;;;6.43;;
8574;SDS011;4325;42.520;27.448;2023-07-13T04:40:21;10.40;;;5.27;;
8574;SDS011;4325;42.520;27.448;2023-07-13T04:42:48;9.83;;;4.87;;
8574;SDS011;4325;42.520;27.448;2023-07-13T04:45:15;8.47;;;5.50;;
8574;SDS011;4325;42.520;27.448;2023-07-13T04:47:43;6.33;;;5.17;;
8574;SDS011;4325;42.520;27.448;2023-07-13T04:50:11;10.77;;;5.77;;
8574;SDS011;4325;42.520;27.448;2023-07-13T04:52:40;15.07;;;5.23;;
8574;SDS011;4325;42.520;27.448;2023-07-13T04:55:08;16.23;;;5.10;;
8574;SDS011;4325;42.520;27.448;2023-07-13T04:57:35;7.67;;;4.70;;
8574;SDS011;4325;42.520;27.448;2023-07-13T05:00:02;7.77;;;5.00;;
8574;SDS011;4325;42.520;27.448;2023-07-13T05:02:31;7.10;;;5.80;;
8574;SDS011;4325;42.520;27.448;2023-07-13T05:05:00;6.53;;;4.70;;
8574;SDS011;4325;42.520;27.448;2023-07-13T05:07:28;8.93;;;5.40;;
8574;SDS011;4325;42.520;27.448;2023-07-13T05:09:55;9.73;;;5.20;;
8574;SDS011;4325;42.520;27.448;2023-07-13T05:12:22;8.57;;;4.87;;
8574;SDS011;4325;42.520;27.448;2023-07-13T05:14:49;6.17;;;5.10;;
8574;SDS011;4325;42.520;27.448;2023-07-13T05:17:16;6.63;;;5.43;;
8574;SDS011;4325;42.520;27.448;2023-07-13T05:19:43;6.77;;;4.70;;
8574;SDS011;4325;42.520;27.448;2023-07-13T05:22:11;8.07;;;5.87;;
8574;SDS011;4325;42.520;27.448;2023-07-13T05:24:38;5.23;;;4.30;;
8574;SDS011;4325;42.520;27.448;2023-07-13T05:27:05;5.77;;;4.70;;
8574;SDS011;4325;42.520;27.448;2023-07-13T05:29:32;8.20;;;5.07;;
8574;SDS011;4325;42.520;27.448;2023-07-13T05:31:59;6.90;;;4.87;;
8574;SDS011;4325;42.520;27.448;2023-07-13T05:34:26;8.63;;;5.30;;
8574;SDS011;4325;42.520;27.448;2023-07-13T05:36:53;7.20;;;5.50;;
8574;SDS011;4325;42.520;27.448;2023-07-13T05:39:21;5.90;;;4.77;;
8574;SDS011;4325;42.520;27.448;2023-07-13T05:41:48;7.70;;;5.80;;
8574;SDS011;4325;42.520;27.448;2023-07-13T05:44:15;8.47;;;5.73;;
8574;SDS011;4325;42.520;27.448;2023-07-13T05:46:42;7.67;;;5.27;;
8574;SDS011;4325;42.520;27.448;2023-07-13T05:49:08;8.07;;;5.60;;
8574;SDS011;4325;42.520;27.448;2023-07-13T05:51:36;8.33;;;5.40;;
8574;SDS011;4325;42.520;27.448;2023-07-13T05:54:03;5.17;;;4.47;;
8574;SDS011;4325;42.520;27.448;2023-07-13T05:56:31;5.67;;;5.07;;
8574;SDS011;4325;42.520;27.448;2023-07-13T05:58:58;8.33;;;5.43;;
8574;SDS011;4325;42.520;27.448;2023-07-13T06:01:25;7.57;;;5.73;;
8574;SDS011;4325;42.520;27.448;2023-07-13T06:03:51;6.53;;;5.37;;
8574;SDS011;4325;42.520;27.448;2023-07-13T06:06:18;7.13;;;5.57;;
8574;SDS011;4325;42.520;27.448;2023-07-13T06:08:45;5.27;;;4.77;;
8574;SDS011;4325;42.520;27.448;2023-07-13T06:11:13;6.63;;;5.50;;
8574;SDS011;4325;42.520;27.448;2023-07-13T06:13:43;7.17;;;4.83;;
8574;SDS011;4325;42.520;27.448;2023-07-13T06:16:10;9.33;;;5.90;;
8574;SDS011;4325;42.520;27.448;2023-07-13T06:18:37;10.33;;;5.23;;
8574;SDS011;4325;42.520;27.448;2023-07-13T06:21:05;6.57;;;5.50;;
8574;SDS011;4325;42.520;27.448;2023-07-13T06:23:33;8.60;;;6.30;;
8574;SDS011;4325;42.520;27.448;2023-07-13T06:26:00;6.23;;;5.37;;
8574;SDS011;4325;42.520;27.448;2023-07-13T06:28:28;6.13;;;5.10;;
8574;SDS011;4325;42.520;27.448;2023-07-13T06:30:58;7.80;;;4.63;;
8574;SDS011;4325;42.520;27.448;2023-07-13T06:33:25;10.03;;;5.43;;
8574;SDS011;4325;42.520;27.448;2023-07-13T06:35:53;7.93;;;5.63;;
8574;SDS011;4325;42.520;27.448;2023-07-13T06:38:21;9.47;;;6.17;;
8574;SDS011;4325;42.520;27.448;2023-07-13T06:40:48;6.37;;;5.67;;
8574;SDS011;4325;42.520;27.448;2023-07-13T06:43:15;14.43;;;5.93;;
8574;SDS011;4325;42.520;27.448;2023-07-13T06:45:43;9.87;;;5.70;;
8574;SDS011;4325;42.520;27.448;2023-07-13T06:48:14;6.73;;;6.03;;
8574;SDS011;4325;42.520;27.448;2023-07-13T06:50:41;5.53;;;5.00;;
8574;SDS011;4325;42.520;27.448;2023-07-13T06:53:08;7.67;;;6.50;;
8574;SDS011;4325;42.520;27.448;2023-07-13T06:55:35;7.93;;;5.37;;
8574;SDS011;4325;42.520;27.448;2023-07-13T06:58:02;6.80;;;5.83;;
8574;SDS011;4325;42.520;27.448;2023-07-13T07:00:29;8.00;;;6.00;;
8574;SDS011;4325;42.520;27.448;2023-07-13T07:02:56;6.80;;;5.87;;
8574;SDS011;4325;42.520;27.448;2023-07-13T07:05:24;8.27;;;6.17;;
8574;SDS011;4325;42.520;27.448;2023-07-13T07:07:51;10.07;;;6.40;;
8574;SDS011;4325;42.520;27.448;2023-07-13T07:10:20;16.33;;;6.23;;
8574;SDS011;4325;42.520;27.448;2023-07-13T07:12:47;7.33;;;6.07;;
8574;SDS011;4325;42.520;27.448;2023-07-13T07:15:14;7.70;;;6.43;;
8574;SDS011;4325;42.520;27.448;2023-07-13T07:17:41;7.00;;;6.30;;
8574;SDS011;4325;42.520;27.448;2023-07-13T07:20:09;6.00;;;5.37;;
8574;SDS011;4325;42.520;27.448;2023-07-13T07:22:38;8.37;;;6.17;;
8574;SDS011;4325;42.520;27.448;2023-07-13T07:25:05;6.43;;;5.80;;
8574;SDS011;4325;42.520;27.448;2023-07-13T07:27:32;10.10;;;6.13;;
8574;SDS011;4325;42.520;27.448;2023-07-13T07:29:59;6.83;;;5.93;;
8574;SDS011;4325;42.520;27.448;2023-07-13T07:32:28;8.47;;;6.43;;
8574;SDS011;4325;42.520;27.448;2023-07-13T07:34:55;6.97;;;6.10;;
8574;SDS011;4325;42.520;27.448;2023-07-13T07:37:22;9.43;;;5.87;;
8574;SDS011;4325;42.520;27.448;2023-07-13T07:39:50;7.63;;;6.13;;
8574;SDS011;4325;42.520;27.448;2023-07-13T07:42:17;8.53;;;6.67;;
8574;SDS011;4325;42.520;27.448;2023-07-13T07:44:44;8.57;;;6.60;;
8574;SDS011;4325;42.520;27.448;2023-07-13T07:47:11;7.70;;;6.50;;
8574;SDS011;4325;42.520;27.448;2023-07-13T07:49:37;7.23;;;6.30;;
8574;SDS011;4325;42.520;27.448;2023-07-13T07:52:05;6.53;;;5.73;;
8574;SDS011;4325;42.520;27.448;2023-07-13T07:54:32;6.87;;;6.17;;
8574;SDS011;4325;42.520;27.448;2023-07-13T07:57:01;10.93;;;6.67;;
8574;SDS011;4325;42.520;27.448;2023-07-13T07:59:27;7.13;;;5.90;;
8574;SDS011;4325;42.520;27.448;2023-07-13T08:01:54;8.80;;;6.83;;
8574;SDS011;4325;42.520;27.448;2023-07-13T08:04:21;9.73;;;6.20;;
8574;SDS011;4325;42.520;27.448;2023-07-13T08:06:48;11.30;;;7.20;;
8574;SDS011;4325;42.520;27.448;2023-07-13T08:09:15;6.20;;;5.60;;
8574;SDS011;4325;42.520;27.448;2023-07-13T08:11:41;6.43;;;5.77;;
8574;SDS011;4325;42.520;27.448;2023-07-13T08:14:10;9.00;;;6.23;;
8574;SDS011;4325;42.520;27.448;2023-07-13T08:16:37;6.80;;;6.07;;
8574;SDS011;4325;42.520;27.448;2023-07-13T08:19:04;8.00;;;6.37;;
8574;SDS011;4325;42.520;27.448;2023-07-13T08:21:31;7.87;;;5.90;;
8574;SDS011;4325;42.520;27.448;2023-07-13T08:23:58;10.53;;;6.10;;
8574;SDS011;4325;42.520;27.448;2023-07-13T08:26:25;6.60;;;5.33;;
8574;SDS011;4325;42.520;27.448;2023-07-13T08:28:52;7.40;;;6.07;;
8574;SDS011;4325;42.520;27.448;2023-07-13T08:31:20;6.63;;;5.93;;
8574;SDS011;4325;42.520;27.448;2023-07-13T08:33:47;6.30;;;5.70;;
8574;SDS011;4325;42.520;27.448;2023-07-13T08:36:15;7.40;;;6.57;;
8574;SDS011;4325;42.520;27.448;2023-07-13T08:38:41;8.00;;;6.27;;
8574;SDS011;4325;42.520;27.448;2023-07-13T08:41:12;8.47;;;6.40;;
8574;SDS011;4325;42.520;27.448;2023-07-13T08:43:41;6.90;;;5.73;;
8574;SDS011;4325;42.520;27.448;2023-07-13T08:46:12;6.60;;;5.90;;
8574;SDS011;4325;42.520;27.448;2023-07-13T08:48:44;8.00;;;6.22;;
8574;SDS011;4325;42.520;27.448;2023-07-13T08:51:21;8.32;;;5.65;;
8574;SDS011;4325;42.520;27.448;2023-07-13T08:53:57;7.05;;;6.32;;
8574;SDS011;4325;42.520;27.448;2023-07-13T08:56:27;11.02;;;6.60;;
8574;SDS011;4325;42.520;27.448;2023-07-13T08:58:56;7.00;;;4.82;;
8574;SDS011;4325;42.520;27.448;2023-07-13T09:01:24;8.70;;;5.35;;
8574;SDS011;4325;42.520;27.448;2023-07-13T09:04:02;7.00;;;5.70;;
8574;SDS011;4325;42.520;27.448;2023-07-13T09:06:40;6.80;;;6.10;;
8574;SDS011;4325;42.520;27.448;2023-07-13T09:09:15;6.10;;;5.57;;
8574;SDS011;4325;42.520;27.448;2023-07-13T09:11:54;6.50;;;5.88;;
8574;SDS011;4325;42.520;27.448;2023-07-13T09:14:40;9.93;;;6.63;;
8574;SDS011;4325;42.520;27.448;2023-07-13T09:17:11;6.43;;;5.75;;
8574;SDS011;4325;42.520;27.448;2023-07-13T09:19:43;6.05;;;5.45;;
8574;SDS011;4325;42.520;27.448;2023-07-13T09:22:15;5.88;;;5.25;;
8574;SDS011;4325;42.520;27.448;2023-07-13T09:24:55;6.13;;;5.47;;
8574;SDS011;4325;42.520;27.448;2023-07-13T09:27:30;7.65;;;5.65;;
8574;SDS011;4325;42.520;27.448;2023-07-13T09:30:04;6.72;;;5.95;;
8574;SDS011;4325;42.520;27.448;2023-07-13T09:32:49;6.20;;;5.60;;
8574;SDS011;4325;42.520;27.448;2023-07-13T09:35:21;6.32;;;5.55;;
8574;SDS011;4325;42.520;27.448;2023-07-13T09:37:56;7.00;;;5.90;;
8574;SDS011;4325;42.520;27.448;2023-07-13T09:40:28;5.90;;;5.03;;
8574;SDS011;4325;42.520;27.448;2023-07-13T09:43:16;6.40;;;5.80;;
8574;SDS011;4325;42.520;27.448;2023-07-13T09:45:45;9.65;;;6.28;;
8574;SDS011;4325;42.520;27.448;2023-07-13T09:48:14;6.60;;;5.93;;
8574;SDS011;4325;42.520;27.448;2023-07-13T09:50:43;7.60;;;5.55;;
8574;SDS011;4325;42.520;27.448;2023-07-13T09:53:11;6.47;;;5.60;;
8574;SDS011;4325;42.520;27.448;2023-07-13T09:55:39;7.43;;;5.63;;
8574;SDS011;4325;42.520;27.448;2023-07-13T09:58:09;6.43;;;5.80;;
8574;SDS011;4325;42.520;27.448;2023-07-13T10:00:38;6.53;;;5.70;;
8574;SDS011;4325;42.520;27.448;2023-07-13T10:03:13;12.88;;;5.43;;
8574;SDS011;4325;42.520;27.448;2023-07-13T10:05:45;6.68;;;5.97;;
8574;SDS011;4325;42.520;27.448;2023-07-13T10:08:17;6.65;;;5.88;;
8574;SDS011;4325;42.520;27.448;2023-07-13T10:10:45;5.75;;;5.15;;
8574;SDS011;4325;42.520;27.448;2023-07-13T10:13:24;5.60;;;5.03;;
8574;SDS011;4325;42.520;27.448;2023-07-13T10:15:55;6.55;;;5.38;;
8574;SDS011;4325;42.520;27.448;2023-07-13T10:18:24;9.02;;;5.25;;
8574;SDS011;4325;42.520;27.448;2023-07-13T10:20:55;6.85;;;4.88;;
8574;SDS011;4325;42.520;27.448;2023-07-13T10:23:35;5.28;;;4.57;;
8574;SDS011;4325;42.520;27.448;2023-07-13T10:26:02;10.13;;;5.03;;
8574;SDS011;4325;42.520;27.448;2023-07-13T10:28:32;5.32;;;4.85;;
8574;SDS011;4325;42.520;27.448;2023-07-13T10:31:02;5.72;;;5.18;;
8574;SDS011;4325;42.520;27.448;2023-07-13T10:33:36;8.45;;;5.50;;
8574;SDS011;4325;42.520;27.448;2023-07-13T10:36:17;5.15;;;4.68;;
8574;SDS011;4325;42.520;27.448;2023-07-13T10:38:59;4.57;;;4.18;;
8574;SDS011;4325;42.520;27.448;2023-07-13T10:41:29;5.47;;;4.70;;
8574;SDS011;4325;42.520;27.448;2023-07-13T10:43:59;6.40;;;4.78;;
8574;SDS011;4325;42.520;27.448;2023-07-13T10:46:28;8.00;;;4.93;;
8574;SDS011;4325;42.520;27.448;2023-07-13T10:48:57;5.45;;;4.45;;
8574;SDS011;4325;42.520;27.448;2023-07-13T10:51:28;6.63;;;4.88;;
8574;SDS011;4325;42.520;27.448;2023-07-13T10:56:48;7.25;;;4.18;;
8574;SDS011;4325;42.520;27.448;2023-07-13T10:59:18;6.65;;;4.20;;
8574;SDS011;4325;42.520;27.448;2023-07-13T11:01:55;4.05;;;3.60;;
8574;SDS011;4325;42.520;27.448;2023-07-13T11:04:24;4.32;;;3.53;;
8574;SDS011;4325;42.520;27.448;2023-07-13T11:06:58;7.53;;;4.38;;
8574;SDS011;4325;42.520;27.448;2023-07-13T11:09:37;6.45;;;4.07;;
8574;SDS011;4325;42.520;27.448;2023-07-13T11:12:09;6.88;;;3.97;;
8574;SDS011;4325;42.520;27.448;2023-07-13T11:15:05;4.68;;;4.13;;
8574;SDS011;4325;42.520;27.448;2023-07-13T11:17:37;5.32;;;4.13;;
8574;SDS011;4325;42.520;27.448;2023-07-13T11:20:36;5.72;;;4.63;;
8574;SDS011;4325;42.520;27.448;2023-07-13T11:23:15;5.50;;;4.80;;
8574;SDS011;4325;42.520;27.448;2023-07-13T11:26:02;4.22;;;3.83;;
8574;SDS011;4325;42.520;27.448;2023-07-13T11:28:30;6.90;;;4.07;;
8574;SDS011;4325;42.520;27.448;2023-07-13T11:31:02;4.70;;;4.25;;
8574;SDS011;4325;42.520;27.448;2023-07-13T11:33:53;3.78;;;3.47;;
8574;SDS011;4325;42.520;27.448;2023-07-13T11:36:24;5.82;;;3.67;;
8574;SDS011;4325;42.520;27.448;2023-07-13T11:39:00;4.22;;;3.67;;
8574;SDS011;4325;42.520;27.448;2023-07-13T11:41:31;4.07;;;3.67;;
8574;SDS011;4325;42.520;27.448;2023-07-13T11:44:05;5.15;;;4.28;;
8574;SDS011;4325;42.520;27.448;2023-07-13T11:46:34;4.85;;;4.35;;
8574;SDS011;4325;42.520;27.448;2023-07-13T11:49:01;7.32;;;4.32;;
8574;SDS011;4325;42.520;27.448;2023-07-13T11:51:31;6.82;;;3.65;;
8574;SDS011;4325;42.520;27.448;2023-07-13T11:54:02;4.55;;;4.15;;
8574;SDS011;4325;42.520;27.448;2023-07-13T11:56:32;4.00;;;3.70;;
8574;SDS011;4325;42.520;27.448;2023-07-13T11:58:59;4.93;;;4.13;;
8574;SDS011;4325;42.520;27.448;2023-07-13T12:01:32;9.23;;;4.20;;
8574;SDS011;4325;42.520;27.448;2023-07-13T12:03:59;4.38;;;3.97;;
8574;SDS011;4325;42.520;27.448;2023-07-13T12:06:28;4.60;;;3.78;;
8574;SDS011;4325;42.520;27.448;2023-07-13T12:08:56;5.93;;;4.65;;
8574;SDS011;4325;42.520;27.448;2023-07-13T12:11:26;4.60;;;3.58;;
8574;SDS011;4325;42.520;27.448;2023-07-13T12:13:54;4.18;;;3.63;;
8574;SDS011;4325;42.520;27.448;2023-07-13T12:16:23;4.15;;;3.75;;
8574;SDS011;4325;42.520;27.448;2023-07-13T12:18:53;5.80;;;4.45;;
8574;SDS011;4325;42.520;27.448;2023-07-13T12:21:26;5.13;;;4.45;;
8574;SDS011;4325;42.520;27.448;2023-07-13T12:23:57;4.80;;;4.38;;
8574;SDS011;4325;42.520;27.448;2023-07-13T12:26:28;4.78;;;4.10;;
8574;SDS011;4325;42.520;27.448;2023-07-13T12:28:56;6.20;;;5.60;;
8574;SDS011;4325;42.520;27.448;2023-07-13T12:31:29;4.45;;;4.05;;
8574;SDS011;4325;42.520;27.448;2023-07-13T12:33:58;5.50;;;5.00;;
8574;SDS011;4325;42.520;27.448;2023-07-13T12:36:29;4.95;;;4.18;;
8574;SDS011;4325;42.520;27.448;2023-07-13T12:39:00;4.25;;;3.85;;
8574;SDS011;4325;42.520;27.448;2023-07-13T12:41:32;4.88;;;4.15;;
8574;SDS011;4325;42.520;27.448;2023-07-13T12:44:00;5.85;;;4.18;;
8574;SDS011;4325;42.520;27.448;2023-07-13T12:46:27;4.45;;;4.05;;
8574;SDS011;4325;42.520;27.448;2023-07-13T12:48:56;6.25;;;4.15;;
8574;SDS011;4325;42.520;27.448;2023-07-13T12:51:25;5.05;;;4.55;;
8574;SDS011;4325;42.520;27.448;2023-07-13T12:53:55;6.05;;;5.10;;
8574;SDS011;4325;42.520;27.448;2023-07-13T12:56:26;6.57;;;4.30;;
8574;SDS011;4325;42.520;27.448;2023-07-13T12:59:00;5.45;;;4.30;;
8574;SDS011;4325;42.520;27.448;2023-07-13T13:01:29;6.05;;;4.10;;
8574;SDS011;4325;42.520;27.448;2023-07-13T13:04:00;4.60;;;4.18;;
8574;SDS011;4325;42.520;27.448;2023-07-13T13:06:31;5.70;;;4.93;;
8574;SDS011;4325;42.520;27.448;2023-07-13T13:08:58;4.68;;;4.28;;
8574;SDS011;4325;42.520;27.448;2023-07-13T13:11:27;7.20;;;3.88;;
8574;SDS011;4325;42.520;27.448;2023-07-13T13:13:55;4.18;;;3.58;;
8574;SDS011;4325;42.520;27.448;2023-07-13T13:16:26;4.47;;;3.97;;
8574;SDS011;4325;42.520;27.448;2023-07-13T13:18:59;4.55;;;3.97;;
8574;SDS011;4325;42.520;27.448;2023-07-13T13:21:30;6.88;;;4.70;;
8574;SDS011;4325;42.520;27.448;2023-07-13T13:23:57;5.35;;;4.45;;
8574;SDS011;4325;42.520;27.448;2023-07-13T13:26:24;4.53;;;4.13;;
8574;SDS011;4325;42.520;27.448;2023-07-13T13:28:51;7.30;;;4.07;;
8574;SDS011;4325;42.520;27.448;2023-07-13T13:31:18;4.18;;;3.80;;
8574;SDS011;4325;42.520;27.448;2023-07-13T13:33:47;4.57;;;4.07;;
8574;SDS011;4325;42.520;27.448;2023-07-13T13:36:14;8.02;;;4.85;;
8574;SDS011;4325;42.520;27.448;2023-07-13T13:38:43;6.15;;;4.13;;
8574;SDS011;4325;42.520;27.448;2023-07-13T13:41:10;4.25;;;3.78;;
8574;SDS011;4325;42.520;27.448;2023-07-13T13:43:38;6.07;;;4.40;;
8574;SDS011;4325;42.520;27.448;2023-07-13T13:46:11;5.90;;;4.50;;
8574;SDS011;4325;42.520;27.448;2023-07-13T13:48:41;10.57;;;5.22;;
8574;SDS011;4325;42.520;27.448;2023-07-13T13:51:14;9.95;;;4.63;;
8574;SDS011;4325;42.520;27.448;2023-07-13T13:53:43;8.63;;;5.20;;
8574;SDS011;4325;42.520;27.448;2023-07-13T13:56:10;7.45;;;4.97;;
8574;SDS011;4325;42.520;27.448;2023-07-13T13:58:37;5.00;;;4.38;;
8574;SDS011;4325;42.520;27.448;2023-07-13T14:01:04;5.30;;;4.80;;
8574;SDS011;4325;42.520;27.448;2023-07-13T14:03:38;8.57;;;5.50;;
8574;SDS011;4325;42.520;27.448;2023-07-13T14:06:04;5.78;;;5.18;;
8574;SDS011;4325;42.520;27.448;2023-07-13T14:08:33;7.85;;;5.60;;
8574;SDS011;4325;42.520;27.448;2023-07-13T14:10:59;5.43;;;4.80;;
8574;SDS011;4325;42.520;27.448;2023-07-13T14:13:27;6.55;;;5.47;;
8574;SDS011;4325;42.520;27.448;2023-07-13T14:15:59;5.25;;;4.72;;
8574;SDS011;4325;42.520;27.448;2023-07-13T14:18:26;5.90;;;5.03;;
8574;SDS011;4325;42.520;27.448;2023-07-13T14:20:53;7.10;;;5.00;;
8574;SDS011;4325;42.520;27.448;2023-07-13T14:23:20;5.60;;;4.95;;
8574;SDS011;4325;42.520;27.448;2023-07-13T14:25:48;6.00;;;4.68;;
8574;SDS011;4325;42.520;27.448;2023-07-13T14:28:20;6.07;;;5.47;;
8574;SDS011;4325;42.520;27.448;2023-07-13T14:30:49;7.65;;;5.65;;
8574;SDS011;4325;42.520;27.448;2023-07-13T14:33:16;6.22;;;4.90;;
8574;SDS011;4325;42.520;27.448;2023-07-13T14:35:43;6.22;;;5.30;;
8574;SDS011;4325;42.520;27.448;2023-07-13T14:38:11;5.88;;;5.28;;
8574;SDS011;4325;42.520;27.448;2023-07-13T14:40:41;5.95;;;5.13;;
8574;SDS011;4325;42.520;27.448;2023-07-13T14:43:11;6.90;;;5.63;;
8574;SDS011;4325;42.520;27.448;2023-07-13T14:45:39;6.07;;;5.20;;
8574;SDS011;4325;42.520;27.448;2023-07-13T14:48:14;5.78;;;4.93;;
8574;SDS011;4325;42.520;27.448;2023-07-13T14:50:44;5.20;;;4.75;;
8574;SDS011;4325;42.520;27.448;2023-07-13T14:53:11;6.07;;;5.07;;
8574;SDS011;4325;42.520;27.448;2023-07-13T14:55:39;5.72;;;5.10;;
8574;SDS011;4325;42.520;27.448;2023-07-13T14:58:07;7.72;;;5.57;;
8574;SDS011;4325;42.520;27.448;2023-07-13T15:00:36;6.45;;;5.47;;
8574;SDS011;4325;42.520;27.448;2023-07-13T15:03:03;7.03;;;5.30;;
8574;SDS011;4325;42.520;27.448;2023-07-13T15:05:31;6.53;;;5.80;;
8574;SDS011;4325;42.520;27.448;2023-07-13T15:08:00;6.90;;;6.20;;
8574;SDS011;4325;42.520;27.448;2023-07-13T15:10:29;6.68;;;6.07;;
8574;SDS011;4325;42.520;27.448;2023-07-13T15:12:58;9.07;;;5.90;;
8574;SDS011;4325;42.520;27.448;2023-07-13T15:15:27;10.02;;;5.55;;